createdAt,value
2018-03-22T00:01:32.438Z,99993.26
2018-03-22T00:04:01.229Z,99993.56
2018-03-22T00:06:29.919Z,99994.55
2018-03-22T00:08:58.605Z,100000.86
2018-03-22T00:11:27.285Z,100009.38
2018-03-22T00:13:55.871Z,100006.89
2018-03-22T00:16:24.553Z,100007.88
2018-03-22T00:18:53.284Z,100009.87
2018-03-22T00:21:22.748Z,99996.48
2018-03-22T00:23:51.422Z,99994.75
2018-03-22T00:26:20.218Z,100002.27
2018-03-22T00:28:48.905Z,100005.63
2018-03-22T00:31:17.699Z,100001.05
2018-03-22T00:33:46.443Z,100003.72
2018-03-22T00:36:15.170Z,100005.02
2018-03-22T00:38:43.904Z,99992.87
2018-03-22T00:41:12.897Z,100000.30
2018-03-22T00:43:41.458Z,99997.15
2018-03-22T00:46:10.158Z,100000.78
2018-03-22T00:48:39.673Z,100016.06
2018-03-22T00:51:10.147Z,100022.25
2018-03-22T00:53:38.834Z,100018.23
2018-03-22T00:56:07.827Z,100018.36
2018-03-22T00:58:36.473Z,100028.38
2018-03-22T01:01:05.198Z,100012.45
2018-03-22T01:03:34.184Z,100016.03
2018-03-22T01:06:02.877Z,100022.07
2018-03-22T01:08:31.465Z,100028.06
2018-03-22T01:11:00.248Z,100037.30
2018-03-22T01:13:28.934Z,100032.96
2018-03-22T01:15:57.529Z,100031.59
2018-03-22T01:18:26.265Z,100032.12
2018-03-22T01:20:54.992Z,100037.75
2018-03-22T01:23:23.626Z,100027.30
2018-03-22T01:25:53.219Z,100028.47
2018-03-22T01:28:22.738Z,100028.44
2018-03-22T01:30:52.156Z,100027.84
2018-03-22T01:33:21.048Z,100023.05
2018-03-22T01:35:49.674Z,100027.27
2018-03-22T01:38:18.251Z,100028.73
2018-03-22T01:40:46.998Z,100027.42
2018-03-22T01:43:15.734Z,100051.19
2018-03-22T01:45:44.411Z,100051.23
2018-03-22T01:48:13.204Z,100054.11
2018-03-22T01:50:41.891Z,100044.68
2018-03-22T01:53:13.892Z,100034.71
2018-03-22T01:55:43.610Z,100043.60
2018-03-22T01:58:12.300Z,100046.89
2018-03-22T02:00:40.936Z,100055.97
2018-03-22T02:03:09.716Z,100060.66
2018-03-22T02:05:38.360Z,100053.49
2018-03-22T02:08:07.089Z,100056.77
2018-03-22T02:10:36.512Z,100050.06
2018-03-22T02:13:05.282Z,100054.77
2018-03-22T02:15:34.025Z,100067.39
2018-03-22T02:18:02.753Z,100071.77
2018-03-22T02:20:31.549Z,100072.94
2018-03-22T02:23:00.228Z,100055.30
2018-03-22T02:25:29.228Z,100043.45
2018-03-22T02:27:57.913Z,100039.72
2018-03-22T02:30:26.495Z,100041.55
2018-03-22T02:32:55.573Z,100051.17
2018-03-22T02:35:24.279Z,100053.66
2018-03-22T02:37:52.965Z,100043.67
2018-03-22T02:40:22.007Z,100044.65
2018-03-22T02:42:50.793Z,100047.91
2018-03-22T02:45:20.249Z,100044.16
2018-03-22T02:47:49.186Z,100049.44
2018-03-22T02:50:18.649Z,100057.59
2018-03-22T02:52:47.330Z,100059.86
2018-03-22T02:55:16.061Z,100044.34
2018-03-22T02:57:45.523Z,100044.20
2018-03-22T03:00:14.296Z,100043.15
2018-03-22T03:02:43.301Z,100043.02
2018-03-22T03:05:11.990Z,100052.58
2018-03-22T03:07:40.723Z,100053.87
2018-03-22T03:10:09.456Z,100065.59
2018-03-22T03:12:38.142Z,100074.51
2018-03-22T03:15:06.779Z,100074.70
2018-03-22T03:17:36.595Z,100068.53
2018-03-22T03:20:05.288Z,100073.95
2018-03-22T03:22:34.031Z,100085.91
2018-03-22T03:25:03.523Z,100091.96
2018-03-22T03:27:32.210Z,100095.31
2018-03-22T03:30:00.856Z,100101.24
2018-03-22T03:32:29.779Z,100085.98
2018-03-22T03:34:58.369Z,100080.97
2018-03-22T03:37:27.113Z,100077.46
2018-03-22T03:39:56.106Z,100085.78
2018-03-22T03:42:24.830Z,100095.80
2018-03-22T03:44:53.515Z,100099.04
2018-03-22T03:47:22.409Z,100099.53
2018-03-22T03:49:50.962Z,100099.06
2018-03-22T03:52:19.525Z,100096.16
2018-03-22T03:54:48.133Z,100100.98
2018-03-22T03:57:16.689Z,100094.39
2018-03-22T03:59:46.014Z,100088.33
2018-03-22T04:02:14.772Z,100098.92
2018-03-22T04:04:44.102Z,100101.58
2018-03-22T04:07:12.662Z,100097.69
2018-03-22T04:09:42.125Z,100085.64
2018-03-22T04:12:10.689Z,100069.98
2018-03-22T04:14:39.253Z,100088.34
2018-03-22T04:17:07.994Z,100097.19
2018-03-22T04:19:36.641Z,100099.16
2018-03-22T04:22:05.211Z,100083.82
2018-03-22T04:24:33.828Z,100078.11
2018-03-22T04:27:02.411Z,100084.16
2018-03-22T04:29:30.985Z,100092.53
2018-03-22T04:31:59.608Z,100092.06
2018-03-22T04:34:28.945Z,100096.52
2018-03-22T04:36:57.522Z,100093.50
2018-03-22T04:39:26.253Z,100098.42
2018-03-22T04:41:54.824Z,100096.30
2018-03-22T04:44:24.174Z,100102.17
2018-03-22T04:46:53.638Z,100110.32
2018-03-22T04:49:22.216Z,100124.18
2018-03-22T04:51:50.776Z,100125.04
2018-03-22T04:54:19.592Z,100107.48
2018-03-22T04:56:48.157Z,100120.20
2018-03-22T04:59:16.724Z,100118.97
2018-03-22T05:01:45.406Z,100109.65
2018-03-22T05:04:13.978Z,100122.02
2018-03-22T05:06:43.301Z,100129.29
2018-03-22T05:09:11.922Z,100121.63
2018-03-22T05:11:41.241Z,100120.38
2018-03-22T05:14:09.797Z,100123.54
2018-03-22T05:16:38.405Z,100124.86
2018-03-22T05:19:06.958Z,100128.17
2018-03-22T05:21:35.509Z,100130.69
2018-03-22T05:24:04.150Z,100125.05
2018-03-22T05:26:32.714Z,100126.98
2018-03-22T05:29:01.282Z,100134.44
2018-03-22T05:31:30.838Z,100135.13
2018-03-22T05:33:59.398Z,100141.28
2018-03-22T05:36:28.661Z,100142.27
2018-03-22T05:38:58.149Z,100137.05
2018-03-22T05:41:26.753Z,100150.94
2018-03-22T05:43:56.082Z,100135.91
2018-03-22T05:46:24.690Z,100136.23
2018-03-22T05:48:53.279Z,100138.13
2018-03-22T05:51:21.838Z,100137.89
2018-03-22T05:53:50.459Z,100148.73
2018-03-22T05:56:19.032Z,100147.08
2018-03-22T05:58:47.615Z,100159.67
2018-03-22T06:01:16.488Z,100158.77
2018-03-22T06:03:45.051Z,100162.72
2018-03-22T06:06:13.623Z,100160.06
2018-03-22T06:08:42.233Z,100151.39
2018-03-22T06:11:10.798Z,100146.66
2018-03-22T06:13:39.362Z,100148.02
2018-03-22T06:16:08.897Z,100147.44
2018-03-22T06:18:37.477Z,100139.20
2018-03-22T06:21:06.048Z,100142.44
2018-03-22T06:23:34.839Z,100139.78
2018-03-22T06:26:03.406Z,100145.00
2018-03-22T06:28:32.728Z,100151.47
2018-03-22T06:31:01.562Z,100157.50
2018-03-22T06:33:30.139Z,100165.34
2018-03-22T06:35:58.729Z,100174.83
2018-03-22T06:38:27.707Z,100182.91
2018-03-22T06:40:56.270Z,100185.86
2018-03-22T06:43:24.832Z,100192.66
2018-03-22T06:45:53.590Z,100193.33
2018-03-22T06:48:22.161Z,100190.88
2018-03-22T06:50:52.658Z,100185.13
2018-03-22T06:53:21.269Z,100186.06
2018-03-22T06:55:49.836Z,100193.55
2018-03-22T06:58:18.400Z,100193.34
2018-03-22T07:00:47.219Z,100186.28
2018-03-22T07:03:15.781Z,100185.52
2018-03-22T07:05:44.346Z,100202.74
2018-03-22T07:08:12.962Z,100205.32
2018-03-22T07:10:41.530Z,100204.87
2018-03-22T07:13:10.094Z,100203.59
2018-03-22T07:15:39.692Z,100195.98
2018-03-22T07:18:09.029Z,100189.00
2018-03-22T07:20:37.602Z,100193.52
2018-03-22T07:23:06.222Z,100193.68
2018-03-22T07:25:35.210Z,100184.41
2018-03-22T07:28:03.773Z,100177.34
2018-03-22T07:30:32.688Z,100180.48
2018-03-22T07:33:01.277Z,100177.30
2018-03-22T07:35:29.850Z,100180.02
2018-03-22T07:37:58.756Z,118183.98
2018-03-22T07:40:28.096Z,118183.98
2018-03-22T07:43:02.207Z,118183.98
2018-03-22T07:45:30.791Z,118183.98
2018-03-22T07:47:59.371Z,118183.98
2018-03-22T07:50:42.809Z,100174.19
2018-03-22T07:53:12.149Z,100174.33
2018-03-22T07:55:41.670Z,100166.92
2018-03-22T07:58:10.426Z,100165.97
2018-03-22T08:00:39.047Z,100165.34
2018-03-22T08:03:16.753Z,100180.22
2018-03-22T08:05:46.279Z,100197.56
2018-03-22T08:08:16.726Z,100176.08
2018-03-22T08:10:46.957Z,100178.33
2018-03-22T08:13:15.534Z,100185.16
2018-03-22T08:15:44.130Z,100175.76
2018-03-22T08:18:12.761Z,118183.98
2018-03-22T08:20:41.481Z,118183.98
2018-03-22T08:23:10.848Z,118183.98
2018-03-22T08:25:39.492Z,118183.98
2018-03-22T08:28:08.069Z,118183.98
2018-03-22T08:30:36.689Z,118183.98
2018-03-22T08:33:05.591Z,118183.98
2018-03-22T08:35:34.173Z,118183.98
2018-03-22T08:38:02.761Z,118183.98
2018-03-22T08:40:31.498Z,118183.98
2018-03-22T08:43:00.070Z,118183.98
2018-03-22T08:45:28.721Z,118183.98
2018-03-22T08:47:57.355Z,118183.98
2018-03-22T08:50:25.930Z,118183.98
2018-03-22T08:52:54.505Z,118183.98
2018-03-22T08:55:24.069Z,118183.98
2018-03-22T08:57:52.647Z,118183.98
2018-03-22T09:00:21.295Z,118183.98
2018-03-22T09:02:49.924Z,118183.98
2018-03-22T09:05:18.499Z,118183.98
2018-03-22T09:07:47.061Z,118183.98
2018-03-22T09:10:15.838Z,118183.98
2018-03-22T09:12:44.405Z,118183.98
2018-03-22T09:15:12.984Z,118183.98
2018-03-22T09:17:42.505Z,118183.98
2018-03-22T09:20:11.090Z,118183.98
2018-03-22T09:22:39.703Z,118183.98
2018-03-22T09:25:08.331Z,118183.98
2018-03-22T09:27:37.676Z,118183.98
2018-03-22T09:30:06.255Z,118183.98
2018-03-22T09:32:35.077Z,118183.98
2018-03-22T09:35:03.657Z,118183.98
2018-03-22T09:37:32.252Z,118183.98
2018-03-22T09:40:00.884Z,118183.98
2018-03-22T09:42:29.474Z,118183.98
2018-03-22T09:44:58.056Z,118183.98
2018-03-22T09:47:26.667Z,118183.98
2018-03-22T09:49:55.240Z,118183.98
2018-03-22T09:52:23.817Z,118183.98
2018-03-22T09:54:52.631Z,118183.98
2018-03-22T09:57:21.227Z,118183.98
2018-03-22T09:59:49.794Z,118183.98
2018-03-22T10:02:18.417Z,118183.98
2018-03-22T10:04:47.745Z,118183.98
2018-03-22T10:07:16.318Z,118183.98
2018-03-22T10:09:44.932Z,118183.98
2018-03-22T10:12:13.509Z,118183.98
2018-03-22T10:14:42.084Z,118183.98
2018-03-22T10:17:10.713Z,118183.98
2018-03-22T10:19:39.295Z,118183.98
2018-03-22T10:22:07.868Z,118183.98
2018-03-22T10:24:36.657Z,118183.98
2018-03-22T10:27:05.265Z,118183.98
2018-03-22T10:29:34.603Z,118183.98
2018-03-22T10:32:03.374Z,118183.98
2018-03-22T10:34:32.709Z,118183.98
2018-03-22T10:37:01.287Z,118183.98
2018-03-22T10:39:29.905Z,118183.98
2018-03-22T10:41:58.510Z,118183.98
2018-03-22T10:44:27.858Z,118183.98
2018-03-22T10:46:56.469Z,118183.98
2018-03-22T10:49:25.069Z,118183.98
2018-03-22T10:51:53.657Z,118183.98
2018-03-22T10:54:23.102Z,118183.98
2018-03-22T10:56:51.681Z,118183.98
2018-03-22T10:59:20.262Z,118183.98
2018-03-22T11:01:54.346Z,118183.98
2018-03-22T11:04:23.695Z,118183.98
2018-03-22T11:06:52.288Z,118183.98
2018-03-22T11:09:20.979Z,118183.98
2018-03-22T11:11:49.554Z,118183.98
2018-03-22T11:14:18.154Z,118183.98
2018-03-22T11:16:46.921Z,118183.98
2018-03-22T11:19:15.516Z,118183.98
2018-03-22T11:21:44.117Z,118183.98
2018-03-22T11:24:12.899Z,118183.98
2018-03-22T11:26:41.480Z,118183.98
2018-03-22T11:29:10.067Z,118183.98
2018-03-22T11:31:38.700Z,118183.98
2018-03-22T11:34:07.276Z,118183.98
2018-03-22T11:36:36.621Z,118183.98
2018-03-22T11:39:05.445Z,118183.98
2018-03-22T11:41:34.784Z,118183.98
2018-03-22T11:44:03.363Z,118183.98
2018-03-22T11:46:31.992Z,118183.98
2018-03-22T11:49:00.588Z,118183.98
2018-03-22T11:51:29.170Z,118183.98
2018-03-22T11:53:57.800Z,118183.98
2018-03-22T11:56:26.402Z,118183.98
2018-03-22T11:58:54.980Z,118183.98
2018-03-22T12:01:23.799Z,118183.98
2018-03-22T12:03:52.383Z,118183.98
2018-03-22T12:06:20.973Z,118183.98
2018-03-22T12:08:49.594Z,118183.98
2018-03-22T12:11:18.953Z,118183.98
2018-03-22T12:13:47.535Z,118183.98
2018-03-22T12:16:17.056Z,118183.98
2018-03-22T12:18:45.633Z,118183.98
2018-03-22T12:21:14.211Z,118183.98
2018-03-22T12:23:43.170Z,118183.98
2018-03-22T12:26:11.742Z,118183.98
2018-03-22T12:28:40.318Z,118183.98
2018-03-22T12:31:08.952Z,118183.98
2018-03-22T12:33:37.537Z,118183.98
2018-03-22T12:36:06.122Z,118183.98
2018-03-22T12:38:35.007Z,118183.98
2018-03-22T12:41:03.601Z,118183.98
2018-03-22T12:43:32.214Z,118183.98
2018-03-22T12:46:00.935Z,118183.98
2018-03-22T12:48:29.513Z,118183.98
2018-03-22T12:50:58.090Z,118183.98
2018-03-22T12:53:26.724Z,118183.98
2018-03-22T12:55:55.313Z,118183.98
2018-03-22T12:58:23.897Z,118183.98
2018-03-22T13:00:52.774Z,118183.98
2018-03-22T13:03:21.360Z,118183.98
2018-03-22T13:05:49.947Z,118183.98
2018-03-22T13:08:18.578Z,118183.98
2018-03-22T13:10:47.170Z,118183.98
2018-03-22T13:13:15.755Z,118183.98
2018-03-22T13:15:44.381Z,118183.98
2018-03-22T13:18:12.977Z,118183.98
2018-03-22T13:20:41.561Z,118183.98
2018-03-22T13:23:10.535Z,118183.98
2018-03-22T13:25:39.122Z,118183.98
2018-03-22T13:28:08.473Z,118183.98
2018-03-22T13:30:37.103Z,118183.98
2018-03-22T13:33:05.688Z,118183.98
2018-03-22T13:35:34.265Z,118183.98
2018-03-22T13:38:02.913Z,118183.98
2018-03-22T13:40:31.507Z,118183.98
2018-03-22T13:43:00.085Z,118183.98
2018-03-22T13:45:28.801Z,118183.98
2018-03-22T13:47:57.380Z,118183.98
2018-03-22T13:50:25.957Z,118183.98
2018-03-22T13:52:54.572Z,118183.98
2018-03-22T13:55:23.173Z,118183.98
2018-03-22T13:57:52.509Z,118183.98
2018-03-22T14:00:21.384Z,118183.98
2018-03-22T14:02:50.737Z,118183.98
2018-03-22T14:05:19.318Z,118183.98
2018-03-22T14:07:48.306Z,118183.98
2018-03-22T14:10:16.889Z,118183.98
2018-03-22T14:12:45.478Z,118183.98
2018-03-22T14:15:14.474Z,118183.98
2018-03-22T14:17:43.054Z,118183.98
2018-03-22T14:20:11.632Z,118183.98
2018-03-22T14:22:40.349Z,118183.98
2018-03-22T14:25:08.917Z,118183.98
2018-03-22T14:27:38.263Z,118183.98
2018-03-22T14:30:06.924Z,118183.98
2018-03-22T14:32:36.273Z,118183.98
2018-03-22T14:35:04.881Z,118183.98
2018-03-22T14:37:33.605Z,118183.98
2018-03-22T14:40:02.960Z,118183.98
2018-03-22T14:42:31.547Z,118183.98
2018-03-22T14:45:00.297Z,118183.98
2018-03-22T14:47:28.878Z,118183.98
2018-03-22T14:49:57.453Z,118183.98
2018-03-22T14:52:26.121Z,118183.98
2018-03-22T14:54:55.474Z,118183.98
2018-03-22T14:57:24.066Z,118183.98
2018-03-22T14:59:52.859Z,118183.98
2018-03-22T15:02:21.457Z,118183.98
2018-03-22T15:04:50.275Z,118183.98
2018-03-22T15:07:19.842Z,118183.98
2018-03-22T15:09:48.446Z,118183.98
2018-03-22T15:12:17.037Z,118183.98
2018-03-22T15:14:47.159Z,118183.98
2018-03-22T15:17:16.525Z,118183.98
2018-03-22T15:19:45.110Z,118183.98
2018-03-22T15:22:13.759Z,118183.98
2018-03-22T15:24:42.343Z,118183.98
2018-03-22T15:27:11.721Z,118183.98
2018-03-22T15:29:41.118Z,118183.98
2018-03-22T15:32:10.488Z,118183.98
2018-03-22T15:34:39.072Z,118183.98
2018-03-22T15:37:07.858Z,118183.98
2018-03-22T15:39:36.428Z,118183.98
2018-03-22T15:42:05.021Z,118183.98
2018-03-22T15:44:33.733Z,118183.98
2018-03-22T15:47:02.319Z,118183.98
2018-03-22T15:49:30.892Z,118183.98
2018-03-22T15:51:59.779Z,118183.98
2018-03-22T15:54:28.365Z,118183.98
2018-03-22T15:57:03.628Z,118183.98
2018-03-22T15:59:32.970Z,118183.98
2018-03-22T16:02:01.540Z,118183.98
2018-03-22T16:04:30.376Z,118183.98
2018-03-22T16:06:58.956Z,118183.98
2018-03-22T16:09:27.537Z,118183.98
2018-03-22T16:11:56.156Z,118183.98
2018-03-22T16:14:25.498Z,118183.98
2018-03-22T16:16:54.069Z,118183.98
2018-03-22T16:19:22.878Z,118183.98
2018-03-22T16:21:51.466Z,118183.98
2018-03-22T16:24:20.042Z,118183.98
2018-03-22T16:26:49.026Z,118183.98
2018-03-22T16:29:17.605Z,118183.98
2018-03-22T16:31:46.179Z,118183.98
2018-03-22T16:34:14.802Z,118183.98
2018-03-22T16:36:44.163Z,118183.98
2018-03-22T16:39:12.741Z,118183.98
2018-03-22T16:41:43.822Z,118183.98
2018-03-22T16:44:13.174Z,118183.98
2018-03-22T16:46:41.750Z,118183.98
2018-03-22T16:49:10.381Z,118183.98
2018-03-22T16:51:38.977Z,118183.98
2018-03-22T16:54:08.322Z,118183.98
2018-03-22T16:56:36.932Z,118183.98
2018-03-22T16:59:05.532Z,118183.98
2018-03-22T17:01:34.106Z,118183.98
2018-03-22T17:04:02.814Z,118183.98
2018-03-22T17:06:31.413Z,118183.98
2018-03-22T17:08:59.990Z,118183.98
2018-03-22T17:11:28.778Z,118183.98
2018-03-22T17:13:57.360Z,118183.98
2018-03-22T17:16:25.947Z,118183.98
2018-03-22T17:18:54.737Z,118183.98
2018-03-22T17:21:23.329Z,118183.98
2018-03-22T17:23:51.914Z,118183.98
2018-03-22T17:26:20.542Z,118183.98
2018-03-22T17:28:49.126Z,118183.98
2018-03-22T17:31:17.701Z,118183.98
2018-03-22T17:33:46.546Z,118183.98
2018-03-22T17:36:15.149Z,118183.98
2018-03-22T17:38:43.723Z,118183.98
2018-03-22T17:41:12.605Z,118183.98
2018-03-22T17:43:41.195Z,118183.98
2018-03-22T17:46:09.771Z,118183.98
2018-03-22T17:48:38.417Z,118183.98
2018-03-22T17:51:06.997Z,118183.98
2018-03-22T17:53:35.561Z,118183.98
2018-03-22T17:56:05.018Z,118183.98
2018-03-22T17:58:33.610Z,118183.98
2018-03-22T18:01:02.196Z,118183.98
2018-03-22T18:03:30.981Z,118183.98
2018-03-22T18:05:59.585Z,118183.98
2018-03-22T18:08:28.947Z,118183.98
2018-03-22T18:10:57.753Z,118183.98
2018-03-22T18:13:26.365Z,118183.98
2018-03-22T18:15:55.719Z,118183.98
2018-03-22T18:18:24.529Z,118183.98
2018-03-22T18:20:53.105Z,118183.98
2018-03-22T18:23:21.678Z,118183.98
2018-03-22T18:25:50.482Z,118183.98
2018-03-22T18:28:19.066Z,118183.98
2018-03-22T18:30:47.642Z,118183.98
2018-03-22T18:33:16.440Z,118183.98
2018-03-22T18:35:45.026Z,118183.98
2018-03-22T18:38:14.363Z,118183.98
2018-03-22T18:40:43.800Z,118183.98
2018-03-22T18:43:12.421Z,118183.98
2018-03-22T18:45:40.994Z,118183.98
2018-03-22T18:48:09.779Z,118183.98
2018-03-22T18:50:38.363Z,118183.98
2018-03-22T18:53:06.941Z,118183.98
2018-03-22T18:55:35.948Z,118183.98
2018-03-22T18:58:05.296Z,118183.98
2018-03-22T19:00:33.897Z,118183.98
2018-03-22T19:03:03.390Z,118183.98
2018-03-22T19:05:32.735Z,118183.98
2018-03-22T19:08:01.310Z,118183.98
2018-03-22T19:10:30.041Z,118183.98
2018-03-22T19:12:58.614Z,118183.98
2018-03-22T19:15:27.200Z,118183.98
2018-03-22T19:17:56.098Z,118183.98
2018-03-22T19:20:24.678Z,118183.98
2018-03-22T19:22:53.262Z,118183.98
2018-03-22T19:25:22.017Z,118183.98
2018-03-22T19:27:50.582Z,118183.98
2018-03-22T19:30:19.935Z,118183.98
2018-03-22T19:32:48.572Z,118183.98
2018-03-22T19:35:17.924Z,118183.98
2018-03-22T19:37:46.497Z,118183.98
2018-03-22T19:40:15.207Z,118183.98
2018-03-22T19:42:43.805Z,118183.98
2018-03-22T19:45:13.144Z,118183.98
2018-03-22T19:47:41.766Z,118183.98
2018-03-22T19:50:11.102Z,118183.98
2018-03-22T19:52:39.668Z,118183.98
2018-03-22T19:55:08.293Z,118183.98
2018-03-22T19:57:36.866Z,118183.98
2018-03-22T20:00:05.506Z,118183.98
2018-03-22T20:02:34.977Z,118183.98
2018-03-22T20:05:03.582Z,118183.98
2018-03-22T20:07:32.913Z,118183.98
2018-03-22T20:10:01.638Z,118183.98
2018-03-22T20:12:30.217Z,118183.98
2018-03-22T20:14:58.803Z,118183.98
2018-03-22T20:17:27.509Z,118183.98
2018-03-22T20:19:56.085Z,118183.98
2018-03-22T20:22:24.668Z,118183.98
2018-03-22T20:24:53.646Z,118183.98
2018-03-22T20:27:22.229Z,118183.98
2018-03-22T20:29:50.800Z,118183.98
2018-03-22T20:32:19.422Z,118183.98
2018-03-22T20:34:48.765Z,118183.98
2018-03-22T20:37:17.342Z,118183.98
2018-03-22T20:39:46.277Z,118183.98
2018-03-22T20:42:14.858Z,118183.98
2018-03-22T20:44:43.446Z,118183.98
2018-03-22T20:47:12.178Z,118183.98
2018-03-22T20:49:40.762Z,118183.98
2018-03-22T20:52:10.092Z,118183.98
2018-03-22T20:54:38.729Z,99162.93
2018-03-22T20:57:08.049Z,99165.84
2018-03-22T20:59:36.607Z,99175.00
2018-03-22T21:02:05.311Z,99183.34
2018-03-22T21:04:34.621Z,99196.94
2018-03-22T21:07:03.971Z,99205.62
2018-03-22T21:09:32.578Z,99226.08
2018-03-22T21:12:01.134Z,99232.74
2018-03-22T21:14:29.722Z,118183.98
2018-03-22T21:16:58.428Z,118183.98
2018-03-22T21:19:26.997Z,118183.98
2018-03-22T21:21:55.573Z,118183.98
2018-03-22T21:24:24.186Z,118183.98
2018-03-22T21:26:53.518Z,118183.98
2018-03-22T21:29:22.085Z,118183.98
2018-03-22T21:31:51.480Z,118183.98
2018-03-22T21:34:20.845Z,118183.98
2018-03-22T21:36:49.430Z,118183.98
2018-03-22T21:39:18.217Z,118183.98
2018-03-22T21:42:04.351Z,118183.98
2018-03-22T21:44:33.736Z,118183.98
2018-03-22T21:50:11.889Z,118183.98
2018-03-22T21:52:47.276Z,99038.36
2018-03-22T21:55:16.222Z,118183.98
2018-03-22T21:57:45.557Z,118183.98
2018-03-22T22:00:14.135Z,118183.98
2018-03-22T22:02:42.848Z,118183.98
2018-03-22T22:05:11.440Z,118183.98
2018-03-22T22:07:40.019Z,118183.98
2018-03-22T22:10:09.007Z,118183.98
2018-03-22T22:12:37.610Z,118183.98
2018-03-22T22:15:06.217Z,118183.98
2018-03-22T22:17:35.608Z,118183.98
2018-03-22T22:20:04.991Z,118183.98
2018-03-22T22:22:33.560Z,118183.98
2018-03-22T22:25:03.170Z,118183.98
2018-03-22T22:27:31.734Z,118183.98
2018-03-22T22:30:00.310Z,118183.98
2018-03-22T22:32:29.206Z,118183.98
2018-03-22T22:34:57.778Z,118183.98
2018-03-22T22:37:26.341Z,118183.98
2018-03-22T22:39:55.893Z,118183.98
2018-03-22T22:42:24.458Z,118183.98
2018-03-22T22:44:53.050Z,118183.98
2018-03-22T22:47:22.055Z,118183.98
2018-03-22T22:49:50.632Z,118183.98
2018-03-22T22:52:19.226Z,118183.98
2018-03-22T22:54:48.008Z,118183.98
2018-03-22T22:57:16.579Z,118183.98
2018-03-22T22:59:45.143Z,118183.98
2018-03-22T23:02:13.815Z,118183.98
2018-03-22T23:04:43.159Z,118183.98
2018-03-22T23:07:11.731Z,118183.98
2018-03-22T23:09:40.544Z,118183.98
2018-03-22T23:12:09.116Z,118183.98
2018-03-22T23:14:37.682Z,118183.98
2018-03-22T23:17:06.303Z,118183.98
2018-03-22T23:19:34.873Z,118183.98
2018-03-22T23:22:04.212Z,118183.98
2018-03-22T23:24:33.698Z,118183.98
2018-03-22T23:27:02.265Z,118183.98
2018-03-22T23:29:30.847Z,118183.98
2018-03-22T23:31:59.550Z,118183.98
2018-03-22T23:34:28.118Z,118183.98
2018-03-22T23:36:56.686Z,118183.98
2018-03-22T23:39:25.391Z,118183.98
2018-03-22T23:41:53.977Z,118183.98
2018-03-22T23:44:22.548Z,118183.98
2018-03-22T23:46:51.157Z,118183.98
2018-03-22T23:49:19.752Z,118183.98
2018-03-22T23:51:49.088Z,118183.98
2018-03-22T23:54:17.700Z,118183.98
2018-03-22T23:56:46.264Z,118183.98
2018-03-22T23:59:14.833Z,118183.98
